Main page
METAR-TAF:

METAR-TAF

Airports :

Oberpfaffenhofen, Germany

latitude: 48-05N, longitude: 011-17E, elevation: 600 m

Current weather observation

The report was made 30 minutes ago, at 17:20 UTC
Wind 7 kt from the West, varying between West/Southwest and Northwest
Temperature 18°C
Humidity 64%
Pressure 1013 hPa
Visibility 10 km or more

METAR: EDMO 141720Z AUTO 28007KT 250V310 9999 // FEW067/// BKN079/// BKN140/// 18/11 Q1013

Time: 19:50 (17:50 UTC)

Forecast

The report was made 50 minutes ago, at 17:00 UTC
Forecast valid from 14 at 18 UTC to 14 at 21 UTC
Wind 5 kt from the South
Visibility 10 km or more
no clouds below 1500 m and no cumulonimbus
Becoming
from 14 at 18 UTC to 14 at 20 UTC
Wind 4 kt from the Southeast

TAF: EDMO 141700Z 1418/1421 19005KT CAVOK BECMG 1418/1420 13004KT

Weather observations and forecasts of more than 4000 airports (METAR and TAF reports).

The available stations are represented by yellow and red dots on the map.

Hover mouse over dot to see the name of the station.

Then click to see weather observations and forecasts.

To change the map : click on the green buttons with a black cross to zoom in, on the green button with a dash to zoom out, or on the green arrows for adjacent maps.


METAR-TAF: